createdAt,value
2019-01-31T00:01:57.812Z,8.50
2019-01-31T00:04:37.674Z,8.25
2019-01-31T00:07:10.205Z,9.05
2019-01-31T00:09:47.851Z,8.88
2019-01-31T00:12:19.266Z,8.77
2019-01-31T00:14:49.034Z,9.15
2019-01-31T00:17:21.296Z,8.65
2019-01-31T00:20:13.530Z,8.68
2019-01-31T00:22:58.182Z,8.03
2019-01-31T00:25:39.888Z,8.73
2019-01-31T00:28:35.596Z,10.58
2019-01-31T00:31:05.307Z,9.25
2019-01-31T00:33:39.001Z,9.03
2019-01-31T00:36:08.940Z,8.75
2019-01-31T00:38:56.662Z,8.20
2019-01-31T00:43:55.162Z,6.53
2019-01-31T00:46:30.740Z,7.08
2019-01-31T00:49:18.997Z,7.62
2019-01-31T00:51:48.816Z,7.87
2019-01-31T00:54:37.099Z,8.08
2019-01-31T00:57:06.842Z,9.15
2019-01-31T00:59:45.553Z,10.65
2019-01-31T01:02:20.979Z,10.03
2019-01-31T01:04:54.942Z,9.18
2019-01-31T01:07:33.313Z,10.48
2019-01-31T01:10:07.713Z,11.60
2019-01-31T01:12:40.214Z,11.35
2019-01-31T01:15:20.160Z,12.05
2019-01-31T01:17:54.205Z,12.23
2019-01-31T01:20:43.835Z,12.15
2019-01-31T01:23:19.351Z,14.43
2019-01-31T01:26:05.003Z,14.63
2019-01-31T01:28:42.293Z,14.70
2019-01-31T01:31:12.035Z,16.67
2019-01-31T01:33:50.693Z,17.23
2019-01-31T01:36:37.993Z,17.92
2019-01-31T01:39:18.617Z,17.87
2019-01-31T01:41:45.168Z,18.30
2019-01-31T01:44:17.451Z,17.20
2019-01-31T01:46:47.189Z,18.95
2019-01-31T01:49:16.923Z,18.98
2019-01-31T01:51:52.371Z,19.37
2019-01-31T01:54:24.787Z,18.70
2019-01-31T01:56:57.313Z,19.30
2019-01-31T01:59:32.563Z,20.02
2019-01-31T02:02:03.929Z,19.67
2019-01-31T02:04:37.069Z,17.77
2019-01-31T02:07:12.949Z,19.67
2019-01-31T02:09:45.697Z,19.50
2019-01-31T02:12:20.537Z,19.48
2019-01-31T02:15:08.159Z,20.72
2019-01-31T02:17:38.593Z,20.32
2019-01-31T02:20:23.041Z,20.97
2019-01-31T02:22:52.777Z,19.30
2019-01-31T02:25:25.049Z,20.97
2019-01-31T02:27:57.499Z,19.17
2019-01-31T02:30:27.294Z,20.17
2019-01-31T02:33:03.962Z,20.20
2019-01-31T02:35:37.865Z,18.15
2019-01-31T02:38:07.584Z,19.27
2019-01-31T02:40:37.324Z,21.27
2019-01-31T02:43:07.042Z,20.88
2019-01-31T02:45:47.386Z,20.08
2019-01-31T02:48:21.322Z,19.52
2019-01-31T02:50:53.906Z,20.52
2019-01-31T02:53:32.274Z,22.62
2019-01-31T02:56:04.598Z,20.88
2019-01-31T02:58:34.314Z,21.82
2019-01-31T03:01:04.046Z,21.82
2019-01-31T03:03:33.788Z,21.27
2019-01-31T03:06:29.517Z,24.20
2019-01-31T03:09:00.446Z,25.35
2019-01-31T03:11:30.428Z,23.32
2019-01-31T03:14:10.039Z,22.52
2019-01-31T03:16:35.309Z,20.68
2019-01-31T03:19:23.478Z,23.25
2019-01-31T03:21:52.921Z,20.35
2019-01-31T03:24:39.035Z,22.85
2019-01-31T03:27:23.813Z,21.33
2019-01-31T03:30:09.795Z,24.10
2019-01-31T03:32:51.419Z,27.25
2019-01-31T03:35:29.502Z,26.27
2019-01-31T03:38:01.896Z,28.00
2019-01-31T03:40:31.678Z,29.55
2019-01-31T03:43:01.473Z,29.92
2019-01-31T03:45:36.984Z,30.68
2019-01-31T03:48:23.508Z,30.15
2019-01-31T03:50:53.609Z,30.25
2019-01-31T03:53:39.784Z,29.50
2019-01-31T03:56:09.573Z,29.32
2019-01-31T03:58:44.420Z,29.92
2019-01-31T04:01:13.590Z,27.80
2019-01-31T04:03:49.045Z,29.35
2019-01-31T04:06:18.401Z,29.40
2019-01-31T04:08:48.551Z,27.52
2019-01-31T04:11:18.307Z,30.32
2019-01-31T04:13:46.576Z,27.17
2019-01-31T04:16:17.987Z,28.25
2019-01-31T04:18:47.778Z,26.40
2019-01-31T04:21:16.200Z,28.27
2019-01-31T04:23:52.148Z,26.73
2019-01-31T04:26:20.335Z,27.15
2019-01-31T04:28:54.863Z,26.52
2019-01-31T04:31:26.201Z,26.17
2019-01-31T04:33:54.312Z,26.90
2019-01-31T04:36:22.426Z,26.60
2019-01-31T04:38:53.388Z,27.02
2019-01-31T04:41:27.315Z,28.02
2019-01-31T04:43:54.512Z,27.62
2019-01-31T04:46:22.797Z,28.60
2019-01-31T04:48:50.955Z,26.75
2019-01-31T04:51:19.070Z,24.35
2019-01-31T04:53:47.168Z,27.25
2019-01-31T04:56:15.267Z,25.10
2019-01-31T04:58:45.856Z,24.20
2019-01-31T05:01:16.870Z,27.45
2019-01-31T05:03:47.929Z,27.48
2019-01-31T05:06:16.022Z,29.00
2019-01-31T05:08:46.295Z,28.57
2019-01-31T05:11:14.414Z,27.77
2019-01-31T05:13:42.869Z,28.47
2019-01-31T05:16:15.409Z,25.97
2019-01-31T05:18:43.501Z,26.40
2019-01-31T05:21:11.611Z,23.40
2019-01-31T05:23:39.713Z,24.98
2019-01-31T05:26:09.957Z,24.57
2019-01-31T05:28:41.080Z,23.25
2019-01-31T05:31:13.398Z,21.68
2019-01-31T05:34:01.270Z,22.17
2019-01-31T05:36:35.374Z,21.85
2019-01-31T05:39:05.095Z,23.27
2019-01-31T05:41:39.287Z,23.70
2019-01-31T05:47:43.159Z,21.17
2019-01-31T05:50:12.748Z,19.95
2019-01-31T05:52:42.054Z,20.20
2019-01-31T05:55:10.140Z,20.12
2019-01-31T05:57:40.091Z,19.10
2019-01-31T06:00:11.189Z,19.07
2019-01-31T06:02:40.926Z,17.70
2019-01-31T06:05:09.497Z,17.05
2019-01-31T06:07:37.618Z,15.83
2019-01-31T06:10:09.286Z,14.47
2019-01-31T06:12:37.382Z,16.30
2019-01-31T06:15:09.826Z,15.03
2019-01-31T06:17:40.058Z,14.80
2019-01-31T06:20:09.777Z,13.60
2019-01-31T06:22:37.863Z,13.98
2019-01-31T06:25:06.005Z,13.48
2019-01-31T06:27:34.184Z,11.70
2019-01-31T06:30:04.042Z,11.05
2019-01-31T06:32:35.326Z,12.15
2019-01-31T06:35:04.298Z,11.88
2019-01-31T06:37:33.172Z,12.68
2019-01-31T06:40:06.093Z,11.57
2019-01-31T06:42:37.557Z,12.70
2019-01-31T06:45:07.278Z,12.98
2019-01-31T06:47:36.061Z,12.47
2019-01-31T06:50:07.189Z,12.23
2019-01-31T06:52:44.344Z,12.47
2019-01-31T06:55:16.947Z,11.55
2019-01-31T06:57:45.086Z,12.65
2019-01-31T07:00:16.020Z,13.30
2019-01-31T07:02:44.174Z,12.68
2019-01-31T07:05:13.060Z,13.65
2019-01-31T07:07:43.535Z,13.98
2019-01-31T07:10:13.199Z,14.23
2019-01-31T07:12:41.532Z,14.87
2019-01-31T07:15:10.640Z,13.80
2019-01-31T07:17:38.879Z,14.83
2019-01-31T07:20:08.617Z,12.37
2019-01-31T07:22:38.384Z,14.38
2019-01-31T07:25:08.408Z,17.85
2019-01-31T07:27:36.515Z,18.42
2019-01-31T07:30:09.185Z,22.22
2019-01-31T07:32:38.238Z,26.27
2019-01-31T07:35:08.134Z,29.35
2019-01-31T07:37:36.277Z,31.33
2019-01-31T07:40:06.033Z,34.13
2019-01-31T07:42:35.071Z,33.53
2019-01-31T07:45:03.761Z,34.92
2019-01-31T07:47:36.749Z,34.33
2019-01-31T07:50:07.345Z,35.03
2019-01-31T07:52:35.493Z,36.38
2019-01-31T07:55:04.370Z,35.98
2019-01-31T07:57:34.111Z,36.75
2019-01-31T08:00:05.700Z,34.98
2019-01-31T08:02:35.511Z,35.05
2019-01-31T08:05:07.721Z,35.78
2019-01-31T08:07:40.209Z,34.20
2019-01-31T08:10:09.938Z,35.17
2019-01-31T08:12:39.288Z,31.23
2019-01-31T08:15:10.691Z,29.40
2019-01-31T08:17:43.134Z,30.08
2019-01-31T08:20:12.645Z,30.15
2019-01-31T08:22:43.818Z,30.62
2019-01-31T08:25:16.260Z,28.32
2019-01-31T08:27:44.413Z,32.75
2019-01-31T08:30:15.086Z,31.13
2019-01-31T08:32:44.282Z,30.08
2019-01-31T08:35:12.310Z,27.63
2019-01-31T08:37:45.122Z,27.75
2019-01-31T08:40:14.298Z,30.00
2019-01-31T08:42:42.423Z,28.15
2019-01-31T08:45:11.815Z,30.62
2019-01-31T08:47:41.158Z,24.60
2019-01-31T08:50:10.906Z,25.65
2019-01-31T08:52:41.651Z,25.70
2019-01-31T08:55:09.919Z,25.68
2019-01-31T08:57:37.922Z,26.65
2019-01-31T09:00:07.648Z,25.48
2019-01-31T09:02:43.568Z,27.35
2019-01-31T09:05:11.681Z,26.65
2019-01-31T09:07:40.975Z,28.10
2019-01-31T09:10:14.650Z,28.52
2019-01-31T09:12:48.364Z,27.00
2019-01-31T09:15:19.432Z,27.15
2019-01-31T09:17:50.504Z,27.45
2019-01-31T09:20:36.741Z,28.23
2019-01-31T09:23:06.497Z,28.10
2019-01-31T09:25:58.020Z,29.07
2019-01-31T09:28:27.775Z,27.48
2019-01-31T09:31:00.104Z,31.12
2019-01-31T09:33:30.611Z,30.30
2019-01-31T09:36:03.279Z,28.12
2019-01-31T09:38:33.228Z,26.50
2019-01-31T09:41:02.983Z,26.00
2019-01-31T09:43:49.279Z,25.45
2019-01-31T09:46:27.921Z,25.40
2019-01-31T09:48:58.775Z,24.60
2019-01-31T09:51:36.019Z,23.60
2019-01-31T09:54:11.473Z,23.55
2019-01-31T09:56:46.935Z,22.67
2019-01-31T09:59:16.698Z,24.52
2019-01-31T10:01:58.008Z,21.73
2019-01-31T10:04:27.836Z,21.97
2019-01-31T10:07:15.854Z,22.82
2019-01-31T10:10:03.703Z,20.00
2019-01-31T10:12:38.419Z,19.10
2019-01-31T10:18:37.258Z,16.12
2019-01-31T10:21:19.114Z,17.87
2019-01-31T10:24:05.364Z,16.75
2019-01-31T10:26:50.092Z,17.95
2019-01-31T10:29:25.366Z,15.20
2019-01-31T10:31:57.993Z,17.35
2019-01-31T10:34:36.513Z,18.80
2019-01-31T10:37:15.290Z,18.17
2019-01-31T10:39:53.357Z,19.98
2019-01-31T10:42:25.998Z,22.52
2019-01-31T10:44:55.720Z,20.77
2019-01-31T10:47:28.704Z,22.60
2019-01-31T10:50:16.250Z,23.30
2019-01-31T10:52:59.628Z,22.52
2019-01-31T10:55:44.044Z,22.35
2019-01-31T10:58:24.359Z,21.77
2019-01-31T11:00:54.124Z,20.50
2019-01-31T11:03:25.482Z,20.88
2019-01-31T11:05:57.942Z,20.92
2019-01-31T11:08:39.623Z,22.60
2019-01-31T11:11:13.330Z,22.17
2019-01-31T11:13:53.356Z,23.35
2019-01-31T11:16:46.677Z,26.17
2019-01-31T11:19:31.299Z,24.77
2019-01-31T11:22:27.567Z,23.07
2019-01-31T11:24:57.310Z,27.25
2019-01-31T11:27:43.636Z,24.37
2019-01-31T11:30:22.917Z,27.22
2019-01-31T11:32:51.856Z,26.95
2019-01-31T11:35:21.676Z,24.75
2019-01-31T11:38:05.030Z,25.35
2019-01-31T11:40:46.008Z,23.87
2019-01-31T11:43:18.640Z,28.38
2019-01-31T11:45:48.370Z,28.25
2019-01-31T11:48:23.754Z,25.23
2019-01-31T11:50:59.374Z,25.52
2019-01-31T11:53:31.732Z,25.40
2019-01-31T11:56:18.140Z,26.17
2019-01-31T11:58:59.478Z,28.73
2019-01-31T12:01:27.588Z,29.05
2019-01-31T12:03:56.572Z,28.67
2019-01-31T12:06:27.705Z,30.48
2019-01-31T12:08:55.806Z,29.27
2019-01-31T12:11:25.565Z,26.85
2019-01-31T12:13:53.682Z,27.17
2019-01-31T12:16:21.784Z,27.70
2019-01-31T12:18:52.268Z,26.48
2019-01-31T12:21:20.377Z,27.65
2019-01-31T12:23:50.029Z,23.52
2019-01-31T12:26:18.135Z,24.25
2019-01-31T12:28:50.855Z,23.92
2019-01-31T12:31:17.315Z,24.60
2019-01-31T12:33:45.428Z,23.57
2019-01-31T12:36:13.648Z,22.05
2019-01-31T12:38:49.686Z,22.07
2019-01-31T12:41:15.615Z,20.55
2019-01-31T12:43:46.399Z,20.10
2019-01-31T12:46:15.716Z,19.17
2019-01-31T12:48:43.701Z,18.63
2019-01-31T12:51:13.003Z,18.48
2019-01-31T12:53:41.013Z,18.33
2019-01-31T12:56:09.125Z,17.42
2019-01-31T12:58:37.497Z,17.30
2019-01-31T13:01:06.013Z,17.00
2019-01-31T13:03:34.137Z,17.60
2019-01-31T13:06:02.289Z,17.12
2019-01-31T13:08:31.537Z,17.67
2019-01-31T13:11:03.185Z,17.25
2019-01-31T13:13:32.953Z,18.80
2019-01-31T13:16:01.159Z,18.70
2019-01-31T13:18:29.269Z,17.60
2019-01-31T13:20:58.907Z,17.07
2019-01-31T13:23:28.643Z,19.82
2019-01-31T13:25:56.746Z,18.80
2019-01-31T13:28:27.323Z,18.05
2019-01-31T13:30:55.446Z,18.52
2019-01-31T13:33:24.374Z,16.12
2019-01-31T13:35:52.544Z,17.17
2019-01-31T13:38:20.626Z,17.75
2019-01-31T13:40:50.547Z,16.67
2019-01-31T13:43:18.625Z,18.92
2019-01-31T13:45:46.745Z,18.52
2019-01-31T13:48:18.100Z,20.52
2019-01-31T13:50:47.880Z,19.50
2019-01-31T13:53:18.656Z,18.45
2019-01-31T13:55:46.704Z,20.13
2019-01-31T13:58:14.804Z,19.77
2019-01-31T14:00:42.907Z,20.40
2019-01-31T14:03:11.076Z,21.12
2019-01-31T14:05:42.242Z,20.02
2019-01-31T14:08:10.368Z,21.10
2019-01-31T14:10:40.280Z,20.48
2019-01-31T14:13:11.307Z,22.00
2019-01-31T14:15:38.299Z,21.42
2019-01-31T14:18:06.530Z,21.75
2019-01-31T14:20:38.159Z,22.02
2019-01-31T14:23:06.269Z,22.73
2019-01-31T14:25:39.505Z,22.55
2019-01-31T14:28:07.640Z,23.98
2019-01-31T14:30:36.894Z,24.00
2019-01-31T14:33:08.375Z,23.63
2019-01-31T14:35:36.664Z,22.48
2019-01-31T14:38:05.008Z,23.05
2019-01-31T14:40:33.139Z,23.15
2019-01-31T14:43:02.946Z,24.35
2019-01-31T14:45:35.203Z,24.00
2019-01-31T14:48:03.301Z,22.77
2019-01-31T14:50:32.566Z,21.12
2019-01-31T14:53:00.622Z,24.77
2019-01-31T14:55:28.782Z,26.12
2019-01-31T14:57:58.565Z,26.62
2019-01-31T15:00:28.302Z,25.43
2019-01-31T15:02:56.432Z,25.90
2019-01-31T15:05:24.526Z,24.25
2019-01-31T15:07:53.448Z,24.90
2019-01-31T15:10:23.355Z,25.90
2019-01-31T15:12:51.477Z,24.95
2019-01-31T15:19:13.589Z,24.70
2019-01-31T15:21:41.684Z,26.33
2019-01-31T15:24:09.795Z,25.48
2019-01-31T15:26:37.889Z,27.10
2019-01-31T15:29:08.939Z,25.37
2019-01-31T15:31:38.683Z,25.02
2019-01-31T15:34:06.797Z,22.62
2019-01-31T15:36:34.975Z,22.50
2019-01-31T15:39:04.105Z,20.50
2019-01-31T15:41:33.739Z,20.12
2019-01-31T15:44:07.988Z,21.30
2019-01-31T15:46:39.650Z,20.23
2019-01-31T15:49:09.591Z,21.52
2019-01-31T15:51:37.706Z,22.02
2019-01-31T15:54:05.917Z,19.52
2019-01-31T15:56:36.889Z,19.05
2019-01-31T15:59:06.643Z,19.12
2019-01-31T16:01:34.793Z,19.32
2019-01-31T16:04:02.901Z,19.23
2019-01-31T16:06:33.852Z,18.32
2019-01-31T16:09:02.022Z,17.80
2019-01-31T16:11:33.426Z,19.15
2019-01-31T16:14:01.621Z,18.30
2019-01-31T16:16:31.006Z,20.32
2019-01-31T16:18:59.119Z,20.23
2019-01-31T16:21:27.241Z,19.87
2019-01-31T16:23:58.315Z,19.57
2019-01-31T16:26:28.198Z,19.00
2019-01-31T16:28:56.304Z,18.32
2019-01-31T16:31:24.783Z,18.37
2019-01-31T16:33:54.682Z,19.77
2019-01-31T16:36:22.789Z,19.65
2019-01-31T16:38:51.063Z,20.00
2019-01-31T16:41:19.166Z,19.87
2019-01-31T16:43:54.750Z,20.80
2019-01-31T16:46:22.870Z,21.00
2019-01-31T16:48:51.042Z,22.75
2019-01-31T16:51:24.495Z,22.02
2019-01-31T16:53:52.640Z,24.05
2019-01-31T16:56:22.006Z,23.45
2019-01-31T16:58:50.463Z,25.37
2019-01-31T17:01:23.228Z,24.50
2019-01-31T17:03:57.281Z,26.85
2019-01-31T17:06:26.498Z,24.72
2019-01-31T17:08:59.235Z,26.62
2019-01-31T17:11:27.377Z,24.07
2019-01-31T17:13:58.098Z,27.90
2019-01-31T17:16:28.466Z,29.23
2019-01-31T17:19:00.719Z,26.12
2019-01-31T17:21:31.551Z,26.00
2019-01-31T17:23:59.682Z,27.52
2019-01-31T17:26:27.810Z,27.60
2019-01-31T17:28:58.698Z,29.12
2019-01-31T17:31:26.811Z,28.07
2019-01-31T17:33:54.932Z,27.93
2019-01-31T17:36:23.099Z,23.22
2019-01-31T17:38:55.960Z,23.80
2019-01-31T17:41:24.149Z,23.05
2019-01-31T17:43:53.879Z,24.05
2019-01-31T17:46:22.113Z,23.87
2019-01-31T17:48:50.201Z,24.70
2019-01-31T17:51:18.579Z,26.07
2019-01-31T17:53:50.877Z,22.87
2019-01-31T17:56:18.990Z,23.73
2019-01-31T17:58:47.115Z,24.67
2019-01-31T18:01:21.239Z,23.67
2019-01-31T18:03:49.744Z,23.40
2019-01-31T18:06:18.927Z,23.50
2019-01-31T18:08:51.093Z,23.92
2019-01-31T18:11:21.855Z,22.27
2019-01-31T18:13:52.626Z,23.87
2019-01-31T18:16:19.689Z,23.75
2019-01-31T18:18:50.146Z,23.62
2019-01-31T18:21:20.157Z,24.98
2019-01-31T18:23:49.800Z,23.83
2019-01-31T18:26:19.680Z,22.45
2019-01-31T18:28:47.824Z,24.45
2019-01-31T18:31:15.945Z,22.35
2019-01-31T18:33:44.029Z,21.87
2019-01-31T18:36:12.141Z,21.70
2019-01-31T18:38:40.482Z,22.70
2019-01-31T18:41:08.638Z,24.80
2019-01-31T18:43:36.732Z,23.87
2019-01-31T18:46:09.594Z,23.98
2019-01-31T18:48:40.994Z,23.45
2019-01-31T18:51:10.906Z,25.37
2019-01-31T18:53:41.106Z,24.27
2019-01-31T18:58:39.076Z,23.83
2019-01-31T19:01:10.734Z,25.48
2019-01-31T19:03:38.838Z,25.37
2019-01-31T19:06:10.116Z,25.50
2019-01-31T19:08:40.982Z,25.80
2019-01-31T19:11:10.690Z,24.52
2019-01-31T19:13:41.132Z,25.77
2019-01-31T19:16:08.586Z,25.62
2019-01-31T19:18:36.686Z,22.80
2019-01-31T19:21:04.780Z,23.30
2019-01-31T19:23:34.556Z,24.05
2019-01-31T19:26:04.466Z,25.12
2019-01-31T19:28:38.686Z,22.85
2019-01-31T19:31:06.775Z,21.35
2019-01-31T19:33:34.874Z,21.75
2019-01-31T19:36:07.782Z,22.25
2019-01-31T19:38:35.893Z,22.73
2019-01-31T19:41:03.992Z,24.00
2019-01-31T19:43:33.786Z,25.08
2019-01-31T19:46:01.997Z,24.65
2019-01-31T19:48:31.171Z,22.25
2019-01-31T19:51:01.290Z,21.25
2019-01-31T19:56:00.306Z,26.50
2019-01-31T19:58:28.419Z,24.05
2019-01-31T20:00:56.561Z,24.80
2019-01-31T20:03:24.701Z,26.27
2019-01-31T20:05:52.801Z,25.60
2019-01-31T20:08:20.916Z,25.70
2019-01-31T20:10:54.251Z,25.32
2019-01-31T20:13:24.851Z,26.55
2019-01-31T20:15:53.009Z,24.98
2019-01-31T20:18:21.131Z,25.57
2019-01-31T20:20:51.609Z,26.95
2019-01-31T20:23:19.711Z,26.07
2019-01-31T20:25:47.795Z,25.25
2019-01-31T20:28:16.173Z,24.35
2019-01-31T20:30:44.259Z,24.32
2019-01-31T20:33:12.372Z,26.27
2019-01-31T20:35:40.487Z,25.52
2019-01-31T20:38:08.583Z,24.82
2019-01-31T20:40:39.072Z,25.37
2019-01-31T20:43:07.453Z,25.85
2019-01-31T20:45:36.949Z,25.40
2019-01-31T20:48:09.375Z,25.12
2019-01-31T20:50:38.186Z,26.35
2019-01-31T20:53:08.103Z,29.27
2019-01-31T20:55:37.192Z,27.62
2019-01-31T20:58:05.358Z,28.77
2019-01-31T21:00:35.627Z,28.93
2019-01-31T21:03:04.708Z,29.43
2019-01-31T21:05:32.826Z,29.37
2019-01-31T21:08:00.921Z,28.83
2019-01-31T21:10:30.846Z,29.02
2019-01-31T21:12:58.990Z,29.10
2019-01-31T21:15:28.870Z,31.85
2019-01-31T21:17:56.965Z,28.05
2019-01-31T21:20:30.082Z,33.33
2019-01-31T21:23:00.926Z,32.25
2019-01-31T21:25:29.038Z,34.25
2019-01-31T21:27:57.128Z,28.50
2019-01-31T21:30:29.862Z,34.10
2019-01-31T21:32:57.964Z,34.98
2019-01-31T21:35:26.596Z,27.82
2019-01-31T21:37:57.984Z,34.80
2019-01-31T21:40:29.802Z,36.85
2019-01-31T21:42:57.972Z,35.80
2019-01-31T21:45:26.077Z,36.03
2019-01-31T21:47:55.652Z,37.53
2019-01-31T21:50:25.422Z,38.55
2019-01-31T21:52:53.570Z,33.20
2019-01-31T21:55:21.671Z,31.42
2019-01-31T21:57:51.563Z,39.45
2019-01-31T22:00:20.747Z,37.75
2019-01-31T22:02:48.766Z,37.13
2019-01-31T22:05:20.393Z,35.73
2019-01-31T22:07:49.468Z,38.58
2019-01-31T22:10:18.588Z,38.88
2019-01-31T22:12:46.762Z,37.47
2019-01-31T22:15:16.551Z,39.38
2019-01-31T22:17:44.667Z,35.95
2019-01-31T22:20:12.837Z,37.23
2019-01-31T22:22:42.574Z,36.53
2019-01-31T22:25:12.814Z,40.10
2019-01-31T22:27:41.038Z,38.10
2019-01-31T22:30:13.824Z,35.38
2019-01-31T22:32:41.923Z,36.50
2019-01-31T22:35:11.447Z,35.68
2019-01-31T22:37:39.621Z,36.53
2019-01-31T22:40:09.356Z,36.13
2019-01-31T22:42:38.667Z,32.35
2019-01-31T22:45:11.606Z,35.88
2019-01-31T22:47:39.809Z,36.13
2019-01-31T22:50:09.810Z,34.60
2019-01-31T22:52:37.943Z,34.00
2019-01-31T22:55:07.530Z,34.67
2019-01-31T22:57:35.658Z,31.15
2019-01-31T23:00:07.011Z,32.15
2019-01-31T23:02:35.231Z,31.30
2019-01-31T23:05:04.397Z,35.45
2019-01-31T23:07:32.416Z,36.73
2019-01-31T23:10:00.654Z,35.92
2019-01-31T23:12:28.850Z,34.73
2019-01-31T23:14:57.159Z,35.75
2019-01-31T23:17:25.267Z,29.65
2019-01-31T23:19:57.089Z,34.33
2019-01-31T23:22:25.569Z,34.18
2019-01-31T23:24:56.377Z,31.90
2019-01-31T23:27:25.745Z,36.55
2019-01-31T23:29:54.472Z,32.48
2019-01-31T23:32:27.177Z,32.80
2019-01-31T23:34:59.210Z,33.92
2019-01-31T23:37:27.312Z,33.67
2019-01-31T23:39:56.583Z,33.18
2019-01-31T23:42:24.605Z,32.03
2019-01-31T23:44:53.123Z,28.25
2019-01-31T23:47:23.747Z,34.10
2019-01-31T23:49:55.099Z,31.68
2019-01-31T23:52:26.131Z,31.05
2019-01-31T23:54:58.912Z,31.20
2019-01-31T23:57:24.050Z,26.80
2019-01-31T23:59:52.152Z,31.42
